createdAt,value
2019-04-07T00:01:05.341Z,45.85
2019-04-07T00:03:33.315Z,46.13
2019-04-07T00:06:01.176Z,41.28
2019-04-07T00:08:29.637Z,48.38
2019-04-07T00:10:57.891Z,39.88
2019-04-07T00:13:25.967Z,42.33
2019-04-07T00:15:53.802Z,44.25
2019-04-07T00:18:22.361Z,49.25
2019-04-07T00:20:50.410Z,40.95
2019-04-07T00:23:18.352Z,45.75
2019-04-07T00:25:46.746Z,47.85
2019-04-07T00:28:14.985Z,50.92
2019-04-07T00:30:42.864Z,50.90
2019-04-07T00:33:11.317Z,53.08
2019-04-07T00:35:39.234Z,51.83
2019-04-07T00:38:07.416Z,51.40
2019-04-07T00:40:35.894Z,47.25
2019-04-07T00:43:04.472Z,53.85
2019-04-07T00:45:32.438Z,56.53
2019-04-07T00:48:00.443Z,59.23
2019-04-07T00:50:29.470Z,58.83
2019-04-07T00:52:57.323Z,64.62
2019-04-07T00:55:25.422Z,65.45
2019-04-07T00:57:53.434Z,54.53
2019-04-07T01:00:22.517Z,53.73
2019-04-07T01:02:50.371Z,47.03
2019-04-07T01:05:18.394Z,55.20
2019-04-07T01:07:46.365Z,46.42
2019-04-07T01:10:14.462Z,43.30
2019-04-07T01:12:42.463Z,50.00
2019-04-07T01:15:11.025Z,47.78
2019-04-07T01:17:39.249Z,47.17
2019-04-07T01:20:08.908Z,41.08
2019-04-07T01:22:37.262Z,40.88
2019-04-07T01:25:06.034Z,44.67
2019-04-07T01:27:33.925Z,50.25
2019-04-07T01:30:02.087Z,52.23
2019-04-07T01:32:30.134Z,55.60
2019-04-07T01:34:58.172Z,41.40
2019-04-07T01:37:26.251Z,37.53
2019-04-07T01:39:54.873Z,46.35
2019-04-07T01:42:47.165Z,46.02
2019-04-07T01:45:45.767Z,51.77
2019-04-07T01:48:32.052Z,46.40
2019-04-07T01:51:31.099Z,46.98
2019-04-07T01:54:16.703Z,49.83
2019-04-07T01:57:07.050Z,45.95
2019-04-07T01:59:53.039Z,52.17
2019-04-07T02:02:44.464Z,52.27
2019-04-07T02:05:30.888Z,48.98
2019-04-07T02:08:11.960Z,50.30
2019-04-07T02:10:59.904Z,47.62
2019-04-07T02:13:41.548Z,62.05
2019-04-07T02:16:25.786Z,59.45
2019-04-07T02:19:12.766Z,60.20
2019-04-07T02:22:02.105Z,55.92
2019-04-07T02:24:52.027Z,58.75
2019-04-07T02:27:29.496Z,60.48
2019-04-07T02:30:12.806Z,73.35
2019-04-07T02:33:00.136Z,73.15
2019-04-07T02:36:14.515Z,73.85
2019-04-07T02:38:39.773Z,74.72
2019-04-07T02:41:15.999Z,70.25
2019-04-07T02:44:01.719Z,68.75
2019-04-07T02:46:48.996Z,54.88
2019-04-07T02:49:48.666Z,64.60
2019-04-07T02:52:34.596Z,58.83
2019-04-07T02:55:20.458Z,58.25
2019-04-07T02:58:10.571Z,62.43
2019-04-07T03:00:46.881Z,65.72
2019-04-07T03:03:43.129Z,56.28
2019-04-07T03:06:52.472Z,51.65
2019-04-07T03:09:40.042Z,53.52
2019-04-07T03:12:19.081Z,54.50
2019-04-07T03:15:03.327Z,54.30
2019-04-07T03:17:50.288Z,48.95
2019-04-07T03:20:46.252Z,52.67
2019-04-07T03:23:39.110Z,51.50
2019-04-07T03:26:26.055Z,60.40
2019-04-07T03:29:16.063Z,45.80
2019-04-07T03:32:05.432Z,50.50
2019-04-07T03:34:40.883Z,59.27
2019-04-07T03:37:36.190Z,62.20
2019-04-07T03:40:13.864Z,61.98
2019-04-07T03:43:04.988Z,48.92
2019-04-07T03:45:43.900Z,57.95
2019-04-07T03:48:23.131Z,53.42
2019-04-07T03:50:57.025Z,57.62
2019-04-07T03:53:35.688Z,52.55
2019-04-07T03:56:13.490Z,56.15
2019-04-07T03:59:03.511Z,54.70
2019-04-07T04:02:03.487Z,52.03
2019-04-07T04:04:41.885Z,62.23
2019-04-07T04:07:31.646Z,55.60
2019-04-07T04:09:55.896Z,49.83
2019-04-07T04:12:31.702Z,59.58
2019-04-07T04:15:18.465Z,54.90
2019-04-07T04:17:46.383Z,53.05
2019-04-07T04:20:14.757Z,51.45
2019-04-07T04:22:43.159Z,49.35
2019-04-07T04:25:11.100Z,48.70
2019-04-07T04:27:39.089Z,50.08
2019-04-07T04:30:07.792Z,51.18
2019-04-07T04:32:35.687Z,49.38
2019-04-07T04:35:03.639Z,69.80
2019-04-07T04:37:39.928Z,64.25
2019-04-07T04:40:01.559Z,64.12
2019-04-07T04:42:29.540Z,58.92
2019-04-07T04:44:57.480Z,62.45
2019-04-07T04:47:25.357Z,68.85
2019-04-07T04:49:53.221Z,60.65
2019-04-07T04:52:21.984Z,52.20
2019-04-07T04:54:50.061Z,54.27
2019-04-07T04:57:17.947Z,55.38
2019-04-07T04:59:45.961Z,56.73
2019-04-07T05:02:13.885Z,60.80
2019-04-07T05:04:41.922Z,59.67
2019-04-07T05:07:10.201Z,66.02
2019-04-07T05:09:44.527Z,70.70
2019-04-07T05:12:08.386Z,62.55
2019-04-07T05:14:36.558Z,68.83
2019-04-07T05:17:05.137Z,60.03
2019-04-07T05:19:33.413Z,61.28
2019-04-07T05:22:01.491Z,57.27
2019-04-07T05:24:30.121Z,59.27
2019-04-07T05:26:58.543Z,54.48
2019-04-07T05:29:26.499Z,54.10
2019-04-07T05:31:54.350Z,54.48
2019-04-07T05:34:23.047Z,53.85
2019-04-07T05:36:51.254Z,55.60
2019-04-07T05:39:19.216Z,56.30
2019-04-07T05:41:48.158Z,50.35
2019-04-07T05:44:16.739Z,51.75
2019-04-07T05:46:45.264Z,50.73
2019-04-07T05:49:15.932Z,50.78
2019-04-07T05:51:43.381Z,53.10
2019-04-07T05:54:12.438Z,51.65
2019-04-07T05:56:41.168Z,53.65
2019-04-07T05:59:11.529Z,51.53
2019-04-07T06:01:39.161Z,48.75
2019-04-07T06:04:07.600Z,51.18
2019-04-07T06:06:35.476Z,46.92
2019-04-07T06:09:05.217Z,50.10
2019-04-07T06:11:35.484Z,45.75
2019-04-07T06:14:03.001Z,41.40
2019-04-07T06:16:31.073Z,44.13
2019-04-07T06:18:59.000Z,37.45
2019-04-07T06:21:27.745Z,36.83
2019-04-07T06:23:59.394Z,39.85
2019-04-07T06:26:25.605Z,41.55
2019-04-07T06:28:58.069Z,41.40
2019-04-07T06:31:25.862Z,39.45
2019-04-07T06:33:54.909Z,41.00
2019-04-07T06:36:24.070Z,38.55
2019-04-07T06:38:52.882Z,39.35
2019-04-07T06:41:21.784Z,37.93
2019-04-07T06:43:49.741Z,37.17
2019-04-07T06:46:41.451Z,38.30
2019-04-07T06:49:31.674Z,38.53
2019-04-07T06:52:18.278Z,35.52
2019-04-07T06:55:04.546Z,39.75
2019-04-07T06:57:54.462Z,35.88
2019-04-07T07:00:45.397Z,35.55
2019-04-07T07:03:38.087Z,34.45
2019-04-07T07:06:16.580Z,33.67
2019-04-07T07:08:54.093Z,33.98
2019-04-07T07:11:40.821Z,34.33
2019-04-07T07:14:29.990Z,37.60
2019-04-07T07:16:51.548Z,34.18
2019-04-07T07:19:47.660Z,41.10
2019-04-07T07:22:18.649Z,33.98
2019-04-07T07:24:47.612Z,34.95
2019-04-07T07:27:16.324Z,35.48
2019-04-07T07:29:45.974Z,35.13
2019-04-07T07:32:14.736Z,34.90
2019-04-07T07:34:43.380Z,34.70
2019-04-07T07:37:11.718Z,35.63
2019-04-07T07:39:43.361Z,33.58
2019-04-07T07:42:09.401Z,32.70
2019-04-07T07:44:38.472Z,32.40
2019-04-07T07:47:06.988Z,30.62
2019-04-07T07:49:39.919Z,29.72
2019-04-07T07:52:04.950Z,30.02
2019-04-07T07:54:33.474Z,31.65
2019-04-07T07:57:01.403Z,33.67
2019-04-07T07:59:32.369Z,32.05
2019-04-07T08:01:58.931Z,31.70
2019-04-07T08:04:27.617Z,31.50
2019-04-07T08:06:55.647Z,36.83
2019-04-07T08:09:25.784Z,32.85
2019-04-07T08:11:53.242Z,32.65
2019-04-07T08:14:21.708Z,33.10
2019-04-07T08:16:50.138Z,30.70
2019-04-07T08:19:18.950Z,29.18
2019-04-07T08:21:50.358Z,32.17
2019-04-07T08:24:18.522Z,31.02
2019-04-07T08:26:46.938Z,36.30
2019-04-07T08:29:15.538Z,33.08
2019-04-07T08:31:43.801Z,34.55
2019-04-07T08:34:12.100Z,32.15
2019-04-07T08:36:42.529Z,32.33
2019-04-07T08:39:20.314Z,29.65
2019-04-07T08:41:41.378Z,30.75
2019-04-07T08:44:09.462Z,31.37
2019-04-07T08:46:40.982Z,30.37
2019-04-07T08:49:07.583Z,30.72
2019-04-07T08:51:36.182Z,29.90
2019-04-07T08:54:04.868Z,34.00
2019-04-07T08:56:34.171Z,31.30
2019-04-07T08:59:02.879Z,32.58
2019-04-07T09:01:31.565Z,29.80
2019-04-07T09:04:01.057Z,29.75
2019-04-07T09:06:30.249Z,31.70
2019-04-07T09:08:58.390Z,32.03
2019-04-07T09:11:27.060Z,31.57
2019-04-07T09:13:55.997Z,30.37
2019-04-07T09:16:46.728Z,30.35
2019-04-07T09:19:35.805Z,32.03
2019-04-07T09:22:30.726Z,33.00
2019-04-07T09:25:24.050Z,29.98
2019-04-07T09:28:17.909Z,33.42
2019-04-07T09:31:14.636Z,29.65
2019-04-07T09:34:20.098Z,30.65
2019-04-07T09:37:05.799Z,29.77
2019-04-07T09:39:58.508Z,30.77
2019-04-07T09:42:46.158Z,28.98
2019-04-07T09:45:45.890Z,28.83
2019-04-07T09:48:38.502Z,32.42
2019-04-07T09:51:11.624Z,31.90
2019-04-07T09:53:54.487Z,30.50
2019-04-07T09:56:45.131Z,30.82
2019-04-07T09:59:30.895Z,30.05
2019-04-07T10:02:18.477Z,30.57
2019-04-07T10:05:17.699Z,31.40
2019-04-07T10:08:05.418Z,32.33
2019-04-07T10:11:07.492Z,31.55
2019-04-07T10:14:12.948Z,30.00
2019-04-07T10:17:03.001Z,29.77
2019-04-07T10:20:08.625Z,31.05
2019-04-07T10:22:55.621Z,29.65
2019-04-07T10:25:29.324Z,29.80
2019-04-07T10:28:12.859Z,32.80
2019-04-07T10:31:00.556Z,29.00
2019-04-07T10:33:50.582Z,30.05
2019-04-07T10:36:38.695Z,30.00
2019-04-07T10:39:29.154Z,29.00
2019-04-07T10:42:14.810Z,30.20
2019-04-07T10:45:00.412Z,30.05
2019-04-07T10:47:53.339Z,32.35
2019-04-07T10:50:37.864Z,30.17
2019-04-07T10:53:23.556Z,32.40
2019-04-07T10:55:59.962Z,31.97
2019-04-07T10:58:35.415Z,31.50
2019-04-07T11:01:32.112Z,30.45
2019-04-07T11:04:15.595Z,28.65
2019-04-07T11:07:07.015Z,31.62
2019-04-07T11:10:06.716Z,31.70
2019-04-07T11:12:52.297Z,36.63
2019-04-07T11:15:52.746Z,33.30
2019-04-07T11:18:40.303Z,36.83
2019-04-07T11:21:34.875Z,32.40
2019-04-07T11:24:18.694Z,32.10
2019-04-07T11:26:56.754Z,34.10
2019-04-07T11:29:55.825Z,34.18
2019-04-07T11:32:39.067Z,32.25
2019-04-07T11:35:31.056Z,31.85
2019-04-07T11:38:15.218Z,31.82
2019-04-07T11:40:55.030Z,32.78
2019-04-07T11:43:33.433Z,29.45
2019-04-07T11:46:08.837Z,30.72
2019-04-07T11:48:43.173Z,30.68
2019-04-07T11:51:16.177Z,29.82
2019-04-07T11:53:58.778Z,30.57
2019-04-07T11:57:01.151Z,33.73
2019-04-07T11:59:46.913Z,32.38
2019-04-07T12:02:36.371Z,30.88
2019-04-07T12:05:27.034Z,33.13
2019-04-07T12:08:12.589Z,30.90
2019-04-07T12:11:05.024Z,30.90
2019-04-07T12:13:49.978Z,30.95
2019-04-07T12:16:35.095Z,32.85
2019-04-07T12:19:12.679Z,30.88
2019-04-07T12:22:15.000Z,34.55
2019-04-07T12:25:03.446Z,29.70
2019-04-07T12:28:06.529Z,28.92
2019-04-07T12:30:43.767Z,29.80
2019-04-07T12:33:40.403Z,30.43
2019-04-07T12:36:23.468Z,30.95
2019-04-07T12:39:19.074Z,29.50
2019-04-07T12:42:12.277Z,28.90
2019-04-07T12:44:47.489Z,30.70
2019-04-07T12:47:52.827Z,28.62
2019-04-07T12:50:39.205Z,28.55
2019-04-07T12:53:44.399Z,30.08
2019-04-07T12:56:29.363Z,32.35
2019-04-07T12:59:15.860Z,32.42
2019-04-07T13:02:07.874Z,29.07
2019-04-07T13:04:53.841Z,31.00
2019-04-07T13:07:56.525Z,30.50
2019-04-07T13:10:34.332Z,28.70
2019-04-07T13:13:21.405Z,29.92
2019-04-07T13:16:24.935Z,29.07
2019-04-07T13:19:01.743Z,28.65
2019-04-07T13:21:59.629Z,31.75
2019-04-07T13:24:45.522Z,28.80
2019-04-07T13:27:23.698Z,30.55
2019-04-07T13:30:09.023Z,27.05
2019-04-07T13:32:52.438Z,28.60
2019-04-07T13:35:53.496Z,31.70
2019-04-07T13:38:40.311Z,29.80
2019-04-07T13:41:37.311Z,26.62
2019-04-07T13:44:13.026Z,27.62
2019-04-07T13:47:00.698Z,26.95
2019-04-07T13:49:47.705Z,28.73
2019-04-07T13:52:39.740Z,25.95
2019-04-07T13:55:40.271Z,26.33
2019-04-07T13:58:17.471Z,29.05
2019-04-07T14:01:13.783Z,32.10
2019-04-07T14:03:57.081Z,29.27
2019-04-07T14:06:32.863Z,30.65
2019-04-07T14:09:19.259Z,31.00
2019-04-07T14:12:08.467Z,32.40
2019-04-07T14:14:49.532Z,32.40
2019-04-07T14:17:49.203Z,31.10
2019-04-07T14:20:40.348Z,33.92
2019-04-07T14:23:39.444Z,31.30
2019-04-07T14:26:33.445Z,35.95
2019-04-07T14:29:20.570Z,33.10
2019-04-07T14:32:06.690Z,33.65
2019-04-07T14:34:43.714Z,35.10
2019-04-07T14:37:34.079Z,35.65
2019-04-07T14:40:21.412Z,31.68
2019-04-07T14:43:17.751Z,35.35
2019-04-07T14:46:04.761Z,31.35
2019-04-07T14:49:07.717Z,31.00
2019-04-07T14:51:50.057Z,32.65
2019-04-07T14:54:30.879Z,33.70
2019-04-07T14:57:22.928Z,33.05
2019-04-07T15:00:02.166Z,35.50
2019-04-07T15:02:30.307Z,34.73
2019-04-07T15:05:06.350Z,36.28
2019-04-07T15:07:52.731Z,33.67
2019-04-07T15:10:28.349Z,35.92
2019-04-07T15:12:59.982Z,35.20
2019-04-07T15:15:28.044Z,33.60
2019-04-07T15:17:55.954Z,33.85
2019-04-07T15:20:24.964Z,32.83
2019-04-07T15:22:53.908Z,35.00
2019-04-07T15:25:22.657Z,30.40
2019-04-07T15:27:52.753Z,31.75
2019-04-07T15:30:20.377Z,32.03
2019-04-07T15:32:48.404Z,32.78
2019-04-07T15:35:16.526Z,32.17
2019-04-07T15:37:44.626Z,32.35
2019-04-07T15:40:12.489Z,31.60
2019-04-07T15:42:44.123Z,28.95
2019-04-07T15:45:12.076Z,30.97
2019-04-07T15:47:40.441Z,30.20
2019-04-07T15:50:08.786Z,30.57
2019-04-07T15:52:37.580Z,33.30
2019-04-07T15:55:06.312Z,28.57
2019-04-07T15:57:35.044Z,30.45
2019-04-07T16:00:05.011Z,29.87
2019-04-07T16:02:33.535Z,30.88
2019-04-07T16:05:02.606Z,30.57
2019-04-07T16:07:33.325Z,32.58
2019-04-07T16:10:01.913Z,29.85
2019-04-07T16:12:30.748Z,31.82
2019-04-07T16:14:58.772Z,30.40
2019-04-07T16:17:27.666Z,32.75
2019-04-07T16:19:55.894Z,28.50
2019-04-07T16:22:24.541Z,30.82
2019-04-07T16:24:55.041Z,29.87
2019-04-07T16:27:22.557Z,29.40
2019-04-07T16:29:50.496Z,29.35
2019-04-07T16:32:18.466Z,29.90
2019-04-07T16:34:46.427Z,29.75
2019-04-07T16:37:14.285Z,30.23
2019-04-07T16:39:42.583Z,30.10
2019-04-07T16:42:10.793Z,27.48
2019-04-07T16:44:42.733Z,30.48
2019-04-07T16:47:19.305Z,29.02
2019-04-07T16:49:47.402Z,31.97
2019-04-07T16:52:11.128Z,30.50
2019-04-07T16:54:41.748Z,31.90
2019-04-07T16:57:09.367Z,32.13
2019-04-07T16:59:40.826Z,27.60
2019-04-07T17:02:08.017Z,27.77
2019-04-07T17:04:36.497Z,32.98
2019-04-07T17:07:08.718Z,31.90
2019-04-07T17:09:35.479Z,32.08
2019-04-07T17:12:03.777Z,31.27
2019-04-07T17:14:35.054Z,34.75
2019-04-07T17:17:01.744Z,29.40
2019-04-07T17:19:30.137Z,30.23
2019-04-07T17:22:00.326Z,31.07
2019-04-07T17:24:30.320Z,30.77
2019-04-07T17:26:58.186Z,28.95
2019-04-07T17:29:28.379Z,29.02
2019-04-07T17:31:58.541Z,30.08
2019-04-07T17:34:26.170Z,30.15
2019-04-07T17:36:57.695Z,33.60
2019-04-07T17:39:40.411Z,29.40
2019-04-07T17:42:12.595Z,28.12
2019-04-07T17:44:53.001Z,26.95
2019-04-07T17:47:37.078Z,28.75
2019-04-07T17:50:26.070Z,30.90
2019-04-07T17:53:16.083Z,29.77
2019-04-07T17:56:20.208Z,27.15
2019-04-07T17:59:08.710Z,27.32
2019-04-07T18:01:52.444Z,27.17
2019-04-07T18:04:50.085Z,29.25
2019-04-07T18:07:36.156Z,28.92
2019-04-07T18:10:22.652Z,29.37
2019-04-07T18:13:12.259Z,30.95
2019-04-07T18:16:19.477Z,29.75
2019-04-07T18:18:59.446Z,31.27
2019-04-07T18:21:47.842Z,31.05
2019-04-07T18:24:37.704Z,33.13
2019-04-07T18:27:15.847Z,35.38
2019-04-07T18:29:59.630Z,31.27
2019-04-07T18:32:34.172Z,33.75
2019-04-07T18:35:22.665Z,31.33
2019-04-07T18:38:14.507Z,30.32
2019-04-07T18:41:10.469Z,34.58
2019-04-07T18:44:04.540Z,32.53
2019-04-07T18:46:39.947Z,32.10
2019-04-07T18:49:29.477Z,35.00
2019-04-07T18:52:15.994Z,33.53
2019-04-07T18:55:07.771Z,34.45
2019-04-07T18:57:54.880Z,32.15
2019-04-07T19:00:35.154Z,32.33
2019-04-07T19:03:30.429Z,34.65
2019-04-07T19:06:24.764Z,34.90
2019-04-07T19:09:12.179Z,38.02
2019-04-07T19:12:04.159Z,33.48
2019-04-07T19:15:01.023Z,37.73
2019-04-07T19:17:50.441Z,34.38
2019-04-07T19:20:38.626Z,34.43
2019-04-07T19:23:28.519Z,37.95
2019-04-07T19:26:09.689Z,37.48
2019-04-07T19:28:56.702Z,36.08
2019-04-07T19:31:42.348Z,38.75
2019-04-07T19:34:29.879Z,38.38
2019-04-07T19:37:31.296Z,39.00
2019-04-07T19:40:23.579Z,38.92
2019-04-07T19:43:04.022Z,38.92
2019-04-07T19:46:03.041Z,39.30
2019-04-07T19:48:56.226Z,36.85
2019-04-07T19:51:49.198Z,36.40
2019-04-07T19:54:51.597Z,33.80
2019-04-07T19:57:44.905Z,37.85
2019-04-07T20:00:44.323Z,40.00
2019-04-07T20:03:47.346Z,37.30
2019-04-07T20:06:40.348Z,42.58
2019-04-07T20:09:23.580Z,40.08
2019-04-07T20:12:16.311Z,38.35
2019-04-07T20:15:17.664Z,41.23
2019-04-07T20:18:05.509Z,36.95
2019-04-07T20:21:14.852Z,39.00
2019-04-07T20:24:07.400Z,38.60
2019-04-07T20:26:50.962Z,39.53
2019-04-07T20:29:41.433Z,39.78
2019-04-07T20:32:13.151Z,36.65
2019-04-07T20:34:54.759Z,41.73
2019-04-07T20:37:41.185Z,45.88
2019-04-07T20:40:19.287Z,40.05
2019-04-07T20:42:54.348Z,38.48
2019-04-07T20:45:47.436Z,36.50
2019-04-07T20:48:35.866Z,38.50
2019-04-07T20:51:19.778Z,38.98
2019-04-07T20:54:07.579Z,38.38
2019-04-07T20:56:55.519Z,36.75
2019-04-07T20:59:45.703Z,42.88
2019-04-07T21:02:23.350Z,38.98
2019-04-07T21:05:09.127Z,41.65
2019-04-07T21:07:54.861Z,41.58
2019-04-07T21:10:35.996Z,46.23
2019-04-07T21:13:19.352Z,44.15
2019-04-07T21:16:08.841Z,38.15
2019-04-07T21:18:45.442Z,38.63
2019-04-07T21:21:35.670Z,41.08
2019-04-07T21:24:21.281Z,41.73
2019-04-07T21:27:07.771Z,43.23
2019-04-07T21:29:44.551Z,45.20
2019-04-07T21:32:36.700Z,42.33
2019-04-07T21:35:38.962Z,41.13
2019-04-07T21:38:32.657Z,39.88
2019-04-07T21:41:18.947Z,44.90
2019-04-07T21:44:11.606Z,43.42
2019-04-07T21:46:58.577Z,43.15
2019-04-07T21:49:39.491Z,43.00
2019-04-07T21:52:32.302Z,42.25
2019-04-07T21:55:14.882Z,42.88
2019-04-07T21:58:08.367Z,40.38
2019-04-07T22:00:55.128Z,39.88
2019-04-07T22:03:40.947Z,43.65
2019-04-07T22:06:18.654Z,40.48
2019-04-07T22:09:02.227Z,41.42
2019-04-07T22:11:32.621Z,43.13
2019-04-07T22:14:04.146Z,47.15
2019-04-07T22:16:32.817Z,45.67
2019-04-07T22:19:01.190Z,42.73
2019-04-07T22:21:29.123Z,38.75
2019-04-07T22:23:57.045Z,40.48
2019-04-07T22:26:24.925Z,39.92
2019-04-07T22:28:53.600Z,41.25
2019-04-07T22:31:27.262Z,43.20
2019-04-07T22:33:57.409Z,38.02
2019-04-07T22:36:25.283Z,40.03
2019-04-07T22:38:56.502Z,37.20
2019-04-07T22:41:24.960Z,39.23
2019-04-07T22:43:53.958Z,40.35
2019-04-07T22:46:26.105Z,38.60
2019-04-07T22:48:56.154Z,43.78
2019-04-07T22:51:23.006Z,44.58
2019-04-07T22:53:56.856Z,41.55
2019-04-07T22:56:22.944Z,36.58
2019-04-07T22:58:50.849Z,42.90
2019-04-07T23:01:18.799Z,43.25
2019-04-07T23:03:47.570Z,47.73
2019-04-07T23:06:15.561Z,48.98
2019-04-07T23:08:43.525Z,49.90
2019-04-07T23:11:11.971Z,48.42
2019-04-07T23:13:39.897Z,47.88
2019-04-07T23:16:13.504Z,47.10
2019-04-07T23:18:38.190Z,47.83
2019-04-07T23:21:07.979Z,46.68
2019-04-07T23:23:35.944Z,48.20
2019-04-07T23:26:03.889Z,45.33
2019-04-07T23:28:32.650Z,47.23
2019-04-07T23:31:01.098Z,44.53
2019-04-07T23:33:29.789Z,43.45
2019-04-07T23:35:57.887Z,47.05
2019-04-07T23:38:26.093Z,47.25
2019-04-07T23:40:54.072Z,47.73
2019-04-07T23:43:23.778Z,46.80
2019-04-07T23:45:51.794Z,48.28
2019-04-07T23:48:19.717Z,50.10
2019-04-07T23:50:47.795Z,43.65
2019-04-07T23:53:34.775Z,41.42
2019-04-07T23:56:03.757Z,49.58
2019-04-07T23:58:34.471Z,46.08
